Time;durP1;ratioP1;P1;durP2;ratioP2;P2;SDS_P1;SDS_P2;PMS_P1;PMS_P2;Temp;Humidity;BMP_temperature;BMP_pressure;BME280_temperature;BME280_humidity;BME280_pressure;Samples;Min_cycle;Max_cycle;Signal;HPM_P1;HPM_P2
2022/07/25 00:00:32;;;;;;;6.20;5.60;;;;;;;22.88;59.54;96502.38;10415471;28;20029;-25
2022/07/25 00:05:32;;;;;;;6.90;6.20;;;;;;;22.75;59.64;96484.78;10411633;28;20044;-22
2022/07/25 00:10:33;;;;;;;6.35;5.75;;;;;;;22.78;59.79;96495.78;10419632;28;20025;-24
2022/07/25 00:15:33;;;;;;;7.33;6.63;;;;;;;22.79;59.39;96491.50;10413157;28;20091;-25
2022/07/25 00:20:33;;;;;;;6.27;5.67;;;;;;;22.79;59.71;96487.25;10417247;28;20041;-24
2022/07/25 00:25:34;;;;;;;5.90;5.30;;;;;;;22.86;58.26;96483.72;10416815;28;20327;-24
2022/07/25 00:30:34;;;;;;;6.43;5.68;;;;;;;23.04;57.68;96485.88;10414640;28;20295;-23
2022/07/25 00:35:35;;;;;;;5.55;5.05;;;;;;;23.03;58.44;96484.19;10425049;28;20304;-24
2022/07/25 00:40:35;;;;;;;6.00;5.50;;;;;;;22.89;59.17;96481.06;10420897;28;20047;-23
2022/07/25 00:45:36;;;;;;;6.25;5.65;;;;;;;22.82;59.66;96487.19;10423862;28;20060;-24
2022/07/25 00:50:36;;;;;;;6.80;6.10;;;;;;;22.81;59.22;96482.94;10423914;28;20125;-22
2022/07/25 00:55:36;;;;;;;7.80;6.53;;;;;;;22.78;59.60;96485.56;10412676;28;20029;-24
2022/07/25 01:00:37;;;;;;;7.05;6.35;;;;;;;22.75;59.81;96479.69;10419656;28;20123;-23
2022/07/25 01:05:37;;;;;;;30.85;6.07;;;;;;;22.76;59.59;96472.00;10420375;28;20168;-25
2022/07/25 01:10:38;;;;;;;6.90;5.72;;;;;;;22.97;56.79;96470.72;10418047;28;20285;-23
2022/07/25 01:15:39;;;;;;;9.05;6.13;;;;;;;23.06;56.46;96458.56;10423661;28;20474;-23
2022/07/25 01:20:39;;;;;;;6.22;5.68;;;;;;;22.99;56.98;96457.03;10421640;28;20404;-24
2022/07/25 01:25:39;;;;;;;9.13;6.83;;;;;;;22.87;58.65;96459.84;10422415;28;20037;-25
2022/07/25 01:30:40;;;;;;;6.83;6.23;;;;;;;22.82;58.93;96454.00;10423961;28;20417;-24
2022/07/25 01:35:40;;;;;;;6.38;5.78;;;;;;;22.74;59.20;96445.66;10422397;28;20400;-23
2022/07/25 01:40:42;;;;;;;8.07;6.63;;;;;;;22.77;59.22;96443.06;10425575;28;20400;-24
2022/07/25 01:45:42;;;;;;;6.68;6.07;;;;;;;22.74;59.77;96432.91;10418971;28;20067;-22
2022/07/25 01:50:43;;;;;;;6.43;5.83;;;;;;;22.86;57.38;96437.75;10425810;28;20047;-23
2022/07/25 01:55:44;;;;;;;7.17;6.47;;;;;;;23.03;56.28;96432.25;10422498;28;20040;-23
2022/07/25 02:00:45;;;;;;;6.43;5.90;;;;;;;23.03;56.77;96428.00;10414401;28;20507;-23
2022/07/25 02:05:45;;;;;;;7.80;7.00;;;;;;;22.90;58.05;96424.03;10423970;28;20128;-24
2022/07/25 02:10:45;;;;;;;7.00;6.37;;;;;;;22.82;58.92;96409.78;10415047;28;20099;-24
2022/07/25 02:15:46;;;;;;;7.70;6.90;;;;;;;22.81;58.78;96418.31;10426561;28;20786;-24
2022/07/25 02:20:46;;;;;;;7.50;6.77;;;;;;;22.80;58.66;96411.50;10421370;28;20034;-24
2022/07/25 02:25:47;;;;;;;6.60;5.80;;;;;;;22.76;59.01;96410.75;10420616;28;20121;-24
2022/07/25 02:30:47;;;;;;;6.40;5.63;;;;;;;22.72;58.80;96393.00;10420156;28;20500;-23
2022/07/25 02:35:47;;;;;;;7.17;6.57;;;;;;;22.94;56.80;96402.69;10420550;28;20116;-24
2022/07/25 02:40:49;;;;;;;7.80;6.50;;;;;;;23.00;56.17;96399.97;10423272;28;20035;-22
2022/07/25 02:45:50;;;;;;;7.40;6.75;;;;;;;22.93;57.29;96387.38;10416846;28;20679;-24
2022/07/25 02:50:50;;;;;;;7.30;6.60;;;;;;;22.87;58.08;96375.59;10422735;28;20095;-24
2022/07/25 02:55:50;;;;;;;7.40;6.70;;;;;;;22.85;58.34;96376.50;10414016;28;20298;-23
2022/07/25 03:00:51;;;;;;;8.87;7.17;;;;;;;22.82;58.64;96379.16;10417488;28;20045;-23
2022/07/25 03:05:51;;;;;;;7.07;6.47;;;;;;;22.81;58.82;96385.94;10421208;28;20028;-24
2022/07/25 03:10:52;;;;;;;7.57;6.77;;;;;;;22.79;58.04;96380.03;10423323;28;20310;-23
2022/07/25 03:15:52;;;;;;;10.35;6.53;;;;;;;22.83;57.84;96373.97;10419329;28;20037;-24
2022/07/25 03:20:53;;;;;;;7.17;6.47;;;;;;;22.99;56.95;96377.88;10421455;28;20044;-24
2022/07/25 03:25:54;;;;;;;7.37;6.67;;;;;;;23.01;57.33;96376.16;10418923;28;20029;-22
2022/07/25 03:30:54;;;;;;;9.38;8.43;;;;;;;22.93;57.97;96378.03;10416659;28;20363;-23
2022/07/25 03:35:55;;;;;;;8.27;7.18;;;;;;;22.84;58.75;96382.50;10418977;28;20403;-24
2022/07/25 03:40:55;;;;;;;6.60;5.88;;;;;;;22.80;59.14;96385.97;10411070;28;20036;-24
2022/07/25 03:45:56;;;;;;;9.43;7.30;;;;;;;22.80;58.53;96385.97;10401214;28;20079;-23
2022/07/25 03:50:56;;;;;;;11.63;7.38;;;;;;;22.94;58.73;96377.16;10398590;28;20025;-24
2022/07/25 03:55:57;;;;;;;8.63;7.73;;;;;;;23.08;57.94;96372.53;10402616;28;20029;-25
2022/07/25 04:00:57;;;;;;;9.63;8.80;;;;;;;23.14;57.71;96357.13;10407150;28;20038;-23
2022/07/25 04:05:57;;;;;;;9.80;8.23;;;;;;;23.29;57.22;96361.88;10418991;28;20033;-24
2022/07/25 04:10:58;;;;;;;9.93;8.93;;;;;;;23.27;57.14;96368.72;10410817;28;20040;-24
2022/07/25 04:15:58;;;;;;;12.67;8.50;;;;;;;23.25;57.32;96370.47;10420468;28;20037;-25
2022/07/25 04:20:58;;;;;;;9.60;8.50;;;;;;;23.18;58.08;96363.84;10417295;28;20037;-24
2022/07/25 04:25:59;;;;;;;8.73;7.57;;;;;;;23.04;58.70;96365.84;10416763;28;20107;-24
2022/07/25 04:30:59;;;;;;;5.90;5.30;;;;;;;22.93;58.97;96367.81;10414262;28;20292;-24
2022/07/25 04:36:00;;;;;;;10.23;7.47;;;;;;;22.88;59.39;96368.78;10417411;28;20112;-24
2022/07/25 04:41:01;;;;;;;10.60;8.30;;;;;;;22.86;59.25;96361.16;10416621;28;20656;-25
2022/07/25 04:46:02;;;;;;;8.88;7.95;;;;;;;23.03;58.32;96359.06;10413209;28;20033;-24
2022/07/25 04:51:02;;;;;;;10.20;5.78;;;;;;;22.92;58.99;96363.56;10419000;28;20033;-24
2022/07/25 04:56:04;;;;;;;8.27;7.47;;;;;;;22.84;59.42;96350.16;10411245;28;20028;-24
2022/07/25 05:01:04;;;;;;;7.15;6.45;;;;;;;22.82;59.51;96356.16;10419399;28;20292;-23
2022/07/25 05:06:05;;;;;;;6.82;5.85;;;;;;;22.73;59.59;96344.44;10413587;28;20111;-23
2022/07/25 05:11:05;;;;;;;8.88;5.65;;;;;;;22.73;59.91;96352.09;10415271;28;20115;-26
2022/07/25 05:16:06;;;;;;;4.83;4.30;;;;;;;22.72;59.86;96352.97;10416665;28;20035;-24
2022/07/25 05:21:09;;;;;;;8.93;6.28;;;;;;;22.71;59.82;96348.75;10423717;28;20068;-25
2022/07/25 05:26:10;;;;;;;7.38;5.47;;;;;;;22.89;59.66;96343.22;10422048;28;20033;-23
2022/07/25 05:31:10;;;;;;;6.90;5.90;;;;;;;23.05;59.45;96341.97;10418903;28;20041;-23
2022/07/25 05:36:11;;;;;;;5.78;4.60;;;;;;;22.99;59.29;96351.50;10425624;28;20550;-23
2022/07/25 05:41:11;;;;;;;5.93;4.90;;;;;;;22.82;59.42;96336.56;10426308;28;20476;-23
2022/07/25 05:46:12;;;;;;;5.30;4.53;;;;;;;22.81;59.75;96347.66;10418519;28;20522;-24
2022/07/25 05:51:12;;;;;;;6.38;5.32;;;;;;;22.77;59.85;96335.84;10418177;28;20279;-24
2022/07/25 05:56:13;;;;;;;6.10;4.93;;;;;;;22.74;59.83;96335.91;10423330;28;20037;-24
2022/07/25 06:01:14;;;;;;;5.85;5.25;;;;;;;22.74;59.93;96341.00;10422160;28;20040;-25
2022/07/25 06:06:15;;;;;;;7.97;6.55;;;;;;;22.76;59.80;96339.28;10420370;28;20067;-24
2022/07/25 06:11:15;;;;;;;5.83;5.17;;;;;;;23.01;59.31;96334.44;10418878;28;20036;-26
2022/07/25 06:16:15;;;;;;;4.50;4.10;;;;;;;23.06;59.02;96333.44;10424113;28;20033;-23
2022/07/25 06:21:16;;;;;;;5.30;4.60;;;;;;;22.93;59.36;96326.97;10426237;28;20044;-23
2022/07/25 06:26:17;;;;;;;6.20;5.53;;;;;;;22.84;59.40;96316.97;10421628;28;20037;-24
2022/07/25 06:31:17;;;;;;;4.90;4.40;;;;;;;22.79;59.74;96329.00;10420971;28;20452;-24
2022/07/25 06:36:17;;;;;;;5.97;4.53;;;;;;;22.76;59.69;96323.97;10425470;28;20032;-23
2022/07/25 06:41:18;;;;;;;5.37;4.97;;;;;;;22.76;59.80;96315.47;10422664;28;20303;-24
2022/07/25 06:46:18;;;;;;;5.85;5.35;;;;;;;22.75;59.93;96319.72;10420150;28;20044;-24
2022/07/25 06:51:21;;;;;;;7.07;5.20;;;;;;;22.87;59.83;96316.03;10420297;28;20038;-25
2022/07/25 06:56:22;;;;;;;7.38;5.82;;;;;;;23.07;59.62;96324.09;10420210;28;20040;-24
2022/07/25 07:01:22;;;;;;;4.80;4.40;;;;;;;23.01;59.22;96312.31;10420496;28;20515;-24
2022/07/25 07:06:22;;;;;;;4.72;4.32;;;;;;;22.88;59.66;96321.13;10422843;28;20033;-23
2022/07/25 07:11:23;;;;;;;4.73;4.33;;;;;;;22.82;59.83;96328.91;10422427;28;20404;-23
2022/07/25 07:16:23;;;;;;;4.87;4.10;;;;;;;22.77;59.88;96318.00;10418091;28;20486;-24
2022/07/25 07:21:24;;;;;;;5.30;4.80;;;;;;;22.76;60.02;96316.31;10419942;28;20082;-23
2022/07/25 07:26:24;;;;;;;4.30;4.00;;;;;;;22.74;60.09;96330.81;10417727;28;20291;-24
2022/07/25 07:31:25;;;;;;;6.90;6.20;;;;;;;22.76;59.77;96328.22;10417794;28;20288;-24
2022/07/25 07:36:25;;;;;;;5.38;4.88;;;;;;;23.00;59.57;96331.03;10420871;28;20085;-24
2022/07/25 07:41:25;;;;;;;4.90;4.50;;;;;;;23.08;59.03;96331.69;10417982;28;20049;-24
2022/07/25 07:46:26;;;;;;;4.43;3.63;;;;;;;22.98;59.46;96331.97;10414261;28;20021;-25
2022/07/25 07:51:26;;;;;;;6.60;6.00;;;;;;;22.91;59.73;96333.81;10419733;28;20286;-25
2022/07/25 07:56:26;;;;;;;7.20;6.23;;;;;;;22.86;59.71;96329.69;10410401;28;20029;-23
2022/07/25 08:01:27;;;;;;;6.20;5.63;;;;;;;22.82;59.92;96326.34;10415640;28;20030;-25
2022/07/25 08:06:27;;;;;;;7.57;6.83;;;;;;;22.83;59.71;96329.75;10418257;28;20033;-24
2022/07/25 08:11:28;;;;;;;6.38;5.85;;;;;;;22.80;59.53;96328.13;10421835;28;20288;-24
2022/07/25 08:16:28;;;;;;;7.10;6.18;;;;;;;22.85;58.82;96331.41;10420096;28;20039;-24
2022/07/25 08:21:29;;;;;;;6.17;5.50;;;;;;;23.06;57.88;96333.44;10411060;28;20970;-25
2022/07/25 08:26:32;;;;;;;4.20;3.80;;;;;;;23.07;58.49;96345.34;10415832;28;20036;-25
2022/07/25 08:31:32;;;;;;;4.25;3.80;;;;;;;22.94;58.87;96338.84;10410183;28;20026;-25
2022/07/25 08:36:33;;;;;;;6.17;5.57;;;;;;;22.88;59.06;96343.25;10419371;28;20037;-23
2022/07/25 08:41:33;;;;;;;4.83;4.43;;;;;;;22.82;59.41;96339.13;10416171;28;20064;-25
2022/07/25 08:46:34;;;;;;;6.93;6.23;;;;;;;22.81;59.51;96337.44;10413419;28;20033;-23
2022/07/25 08:51:36;;;;;;;5.88;5.30;;;;;;;22.79;59.42;96329.00;10419861;28;20364;-24
2022/07/25 08:56:36;;;;;;;5.55;5.05;;;;;;;22.79;59.44;96334.09;10423676;28;20037;-24
2022/07/25 09:01:38;;;;;;;5.57;4.33;;;;;;;22.95;58.47;96332.88;10429518;28;20037;-23
2022/07/25 09:06:49;;;;;;;4.38;4.07;;;;;;;23.10;57.75;96319.75;10424378;28;20040;-24
2022/07/25 09:11:49;;;;;;;4.50;4.10;;;;;;;23.01;58.36;96330.19;10428131;28;20539;-26
2022/07/25 09:16:50;;;;;;;4.97;4.57;;;;;;;22.92;58.91;96325.25;10425190;28;20293;-24
2022/07/25 09:22:00;;;;;;;5.60;5.10;;;;;;;22.84;59.08;96327.19;10420078;28;20291;-24
2022/07/25 09:27:08;;;;;;;5.88;4.93;;;;;;;22.76;59.14;96318.00;10423670;28;20288;-26
2022/07/25 09:32:20;;;;;;;5.65;4.90;;;;;;;22.80;59.31;96330.66;10420762;28;20029;-25
2022/07/25 09:37:26;;;;;;;6.07;5.50;;;;;;;22.80;59.24;96328.13;10426729;28;20033;-26
2022/07/25 09:42:31;;;;;;;6.03;5.50;;;;;;;22.83;58.63;96333.13;10423810;28;20041;-25
2022/07/25 09:47:33;;;;;;;4.70;4.30;;;;;;;23.05;58.09;96321.56;10417264;28;20287;-25
2022/07/25 09:52:34;;;;;;;4.00;3.70;;;;;;;23.08;58.25;96316.38;10417507;28;20448;-24
2022/07/25 09:57:34;;;;;;;4.85;4.18;;;;;;;22.96;58.69;96332.00;10427110;28;20040;-25
2022/07/25 10:02:51;;;;;;;5.57;5.07;;;;;;;22.88;59.15;96323.69;10418424;28;20029;-24
2022/07/25 10:07:53;;;;;;;5.47;4.97;;;;;;;22.85;59.25;96323.75;10422594;28;20290;-24
2022/07/25 10:13:10;;;;;;;7.72;6.78;;;;;;;22.83;59.25;96320.38;10421120;28;20029;-25
2022/07/25 10:18:12;;;;;;;5.53;5.03;;;;;;;22.84;59.07;96311.03;10413949;28;20495;-24
2022/07/25 10:23:16;;;;;;;5.05;4.65;;;;;;;22.81;59.34;96311.09;10410587;28;20512;-25
2022/07/25 10:28:18;;;;;;;4.82;4.32;;;;;;;22.99;58.69;96306.38;10422220;28;20032;-24
2022/07/25 10:33:20;;;;;;;5.00;3.97;;;;;;;23.13;57.95;96296.66;10416768;28;20111;-25
2022/07/25 10:38:27;;;;;;;4.03;3.72;;;;;;;23.01;58.55;96291.88;10422737;28;20037;-24
2022/07/25 10:43:28;;;;;;;9.65;5.25;;;;;;;22.89;59.10;96289.59;10415731;28;20041;-23
2022/07/25 10:48:31;;;;;;;10.23;4.65;;;;;;;22.83;59.45;96294.84;10416045;28;20405;-24
2022/07/25 10:53:45;;;;;;;14.13;6.38;;;;;;;22.83;59.46;96297.41;10415729;28;20040;-24
2022/07/25 10:58:47;;;;;;;16.08;7.75;;;;;;;22.81;59.51;96300.88;10418555;28;20037;-25
2022/07/25 11:03:49;;;;;;;22.38;9.57;;;;;;;22.76;59.36;96293.34;10421783;28;20172;-24
2022/07/25 11:08:49;;;;;;;21.52;10.38;;;;;;;22.88;58.93;96308.34;10416635;28;20033;-25
2022/07/25 11:13:50;;;;;;;14.33;6.87;;;;;;;23.10;58.35;96319.75;10415317;28;20041;-23
2022/07/25 11:18:50;;;;;;;6.00;4.25;;;;;;;23.11;58.23;96306.09;10420009;28;20120;-25
2022/07/25 11:23:51;;;;;;;7.87;5.43;;;;;;;22.99;59.02;96326.81;10417362;28;20037;-25
2022/07/25 11:28:52;;;;;;;12.10;6.53;;;;;;;22.95;58.93;96301.38;10417672;28;20032;-25
2022/07/25 11:33:52;;;;;;;9.38;4.50;;;;;;;22.88;59.63;96310.06;10409507;28;20059;-24
2022/07/25 11:38:53;;;;;;;13.07;7.13;;;;;;;22.85;59.43;96311.00;10420349;28;20024;-24
2022/07/25 11:43:53;;;;;;;6.65;4.95;;;;;;;22.83;58.85;96302.50;10411935;28;20132;-24
2022/07/25 11:49:03;;;;;;;6.90;6.00;;;;;;;22.81;59.44;96306.81;10418483;28;20032;-23
2022/07/25 11:54:09;;;;;;;5.63;5.13;;;;;;;23.00;58.86;96292.72;10416161;28;20036;-23
2022/07/25 11:59:09;;;;;;;6.32;4.88;;;;;;;23.15;58.57;96291.56;10414603;28;20030;-23
2022/07/25 12:04:15;;;;;;;7.55;5.07;;;;;;;22.98;58.83;96281.72;10398347;28;20512;-24
2022/07/25 12:09:20;;;;;;;8.27;6.25;;;;;;;22.96;59.33;96293.69;10401788;28;20026;-25
2022/07/25 12:14:21;;;;;;;10.82;7.43;;;;;;;22.92;59.15;96292.06;10408200;28;20076;-24
2022/07/25 12:19:21;;;;;;;9.93;6.10;;;;;;;22.88;59.43;96287.06;10410641;28;20418;-25
2022/07/25 12:24:22;;;;;;;11.23;7.78;;;;;;;22.85;59.72;96272.69;10415333;28;20416;-26
2022/07/25 12:29:22;;;;;;;8.20;5.10;;;;;;;22.84;59.82;96272.72;10422040;28;20080;-25
2022/07/25 12:34:23;;;;;;;8.30;6.43;;;;;;;22.87;59.48;96255.63;10426233;28;20164;-24
2022/07/25 12:39:23;;;;;;;6.73;4.60;;;;;;;23.10;58.86;96268.66;10429598;28;20025;-22
2022/07/25 12:44:23;;;;;;;4.63;4.18;;;;;;;23.14;58.69;96265.19;10429844;28;20033;-24
2022/07/25 12:49:24;;;;;;;7.23;5.40;;;;;;;23.02;59.11;96257.81;10430701;28;20064;-24
2022/07/25 12:54:24;;;;;;;8.30;6.20;;;;;;;22.94;59.33;96275.03;10426708;28;20287;-24
2022/07/25 12:59:25;;;;;;;9.73;6.20;;;;;;;22.91;59.69;96264.88;10422684;28;20036;-28
2022/07/25 13:04:25;;;;;;;8.75;6.13;;;;;;;22.85;59.86;96271.84;10436734;28;20775;-24
2022/07/25 13:09:27;;;;;;;9.45;6.13;;;;;;;22.85;60.03;96259.09;10428803;28;20099;-26
2022/07/25 13:14:27;;;;;;;8.30;6.57;;;;;;;22.84;59.65;96265.91;10424858;28;20067;-24
2022/07/25 13:19:27;;;;;;;6.40;5.23;;;;;;;22.98;59.09;96263.84;10432822;28;20037;-25
2022/07/25 13:24:28;;;;;;;5.80;5.30;;;;;;;23.19;58.56;96258.25;10427915;28;20136;-24
2022/07/25 13:29:28;;;;;;;4.90;4.40;;;;;;;23.11;58.82;96255.00;10429384;28;20030;-25
2022/07/25 13:34:29;;;;;;;10.63;6.53;;;;;;;23.01;59.29;96258.69;10427996;28;20326;-21
2022/07/25 13:39:30;;;;;;;7.18;6.20;;;;;;;22.95;59.36;96253.72;10425477;28;20026;-25
2022/07/25 13:44:30;;;;;;;11.35;5.85;;;;;;;22.95;59.65;96263.94;10417351;28;20038;-23
2022/07/25 13:49:31;;;;;;;12.40;7.13;;;;;;;22.87;60.81;96245.41;10420750;28;20032;-23
2022/07/25 13:54:31;;;;;;;9.23;7.18;;;;;;;22.97;60.11;96251.97;10417500;28;20350;-25
2022/07/25 13:59:32;;;;;;;8.40;7.13;;;;;;;22.93;60.42;96240.16;10426428;28;20084;-25
2022/07/25 14:04:32;;;;;;;8.33;4.73;;;;;;;23.14;59.27;96236.22;10424846;28;20029;-24
2022/07/25 14:09:33;;;;;;;7.20;5.13;;;;;;;23.21;58.83;96225.84;10425837;28;20030;-24
2022/07/25 14:14:33;;;;;;;7.20;4.93;;;;;;;23.10;59.41;96230.38;10423795;28;20295;-26
2022/07/25 14:19:33;;;;;;;6.97;6.00;;;;;;;23.00;59.94;96226.34;10423838;28;20041;-24
2022/07/25 14:24:34;;;;;;;7.50;5.90;;;;;;;22.98;59.95;96215.34;10422193;28;20035;-25
2022/07/25 14:29:36;;;;;;;7.32;6.57;;;;;;;22.95;59.87;96220.53;10422238;28;20075;-23
2022/07/25 14:34:39;;;;;;;7.65;6.80;;;;;;;22.92;60.25;96212.94;10417314;28;20492;-25
2022/07/25 14:39:39;;;;;;;7.30;5.57;;;;;;;22.92;60.16;96215.47;10418247;28;20076;-24
2022/07/25 14:44:40;;;;;;;9.67;7.03;;;;;;;22.96;59.61;96208.59;10419496;28;20121;-24
2022/07/25 14:49:40;;;;;;;6.05;4.63;;;;;;;23.19;58.84;96202.06;10424345;28;20033;-24
2022/07/25 14:54:41;;;;;;;4.15;3.75;;;;;;;23.20;58.97;96213.94;10418584;28;20127;-23
2022/07/25 14:59:41;;;;;;;6.07;4.05;;;;;;;23.07;59.28;96212.53;10416053;28;20128;-25
2022/07/25 15:04:42;;;;;;;5.90;4.77;;;;;;;23.02;59.54;96218.66;10422549;28;20033;-24
2022/07/25 15:09:42;;;;;;;6.37;5.40;;;;;;;22.98;59.96;96217.06;10418632;28;20037;-25
2022/07/25 15:14:43;;;;;;;7.73;6.50;;;;;;;22.97;60.13;96218.78;10418242;28;20056;-23
2022/07/25 15:19:43;;;;;;;5.67;5.17;;;;;;;22.95;60.09;96225.63;10423776;28;20166;-25
2022/07/25 15:24:43;;;;;;;8.20;5.90;;;;;;;22.92;60.14;96220.59;10413858;28;20397;-24
2022/07/25 15:29:44;;;;;;;5.60;4.90;;;;;;;23.06;59.43;96215.97;10417008;28;20431;-25
2022/07/25 15:34:44;;;;;;;4.53;4.13;;;;;;;23.27;58.75;96225.69;10416304;28;20045;-25
2022/07/25 15:39:45;;;;;;;3.73;3.43;;;;;;;23.15;59.11;96223.44;10418535;28;20046;-24
2022/07/25 15:44:45;;;;;;;4.93;4.50;;;;;;;23.04;59.72;96222.84;10409906;28;20471;-24
2022/07/25 15:49:45;;;;;;;7.37;4.63;;;;;;;23.01;59.87;96222.09;10423179;28;20128;-24
2022/07/25 15:54:46;;;;;;;5.67;4.87;;;;;;;22.98;59.88;96211.97;10418260;28;20415;-25
2022/07/25 15:59:46;;;;;;;6.18;5.43;;;;;;;22.96;59.86;96217.09;10416784;28;20284;-25
2022/07/25 16:04:46;;;;;;;5.50;5.00;;;;;;;22.96;60.07;96219.66;10419671;28;20045;-24
2022/07/25 16:09:48;;;;;;;5.97;5.40;;;;;;;22.96;59.99;96224.75;10417357;28;20518;-25
2022/07/25 16:14:49;;;;;;;4.35;3.95;;;;;;;23.15;59.17;96236.19;10414303;28;20033;-24
2022/07/25 16:19:50;;;;;;;4.43;3.55;;;;;;;23.27;58.70;96238.44;10418433;28;20042;-24
2022/07/25 16:24:51;;;;;;;4.60;4.20;;;;;;;23.13;59.32;96240.47;10417961;28;20036;-24
2022/07/25 16:29:52;;;;;;;5.35;4.32;;;;;;;23.04;59.56;96233.06;10415404;28;20029;-24
2022/07/25 16:34:52;;;;;;;5.88;5.38;;;;;;;23.01;59.88;96237.41;10415896;28;20036;-23
2022/07/25 16:39:52;;;;;;;5.50;5.00;;;;;;;22.98;59.79;96248.53;10414061;28;20392;-25
2022/07/25 16:44:53;;;;;;;5.67;5.17;;;;;;;22.98;59.92;96245.97;10416862;28;20483;-24
2022/07/25 16:49:53;;;;;;;6.13;5.53;;;;;;;22.95;60.11;96248.63;10416765;28;20411;-24
2022/07/25 16:54:53;;;;;;;8.03;5.90;;;;;;;23.00;59.85;96251.88;10414392;28;20041;-25
2022/07/25 16:59:54;;;;;;;4.17;3.80;;;;;;;23.20;58.97;96249.69;10415817;28;20451;-25
2022/07/25 17:04:54;;;;;;;6.97;3.90;;;;;;;23.24;58.90;96241.06;10411123;28;20036;-23
2022/07/25 17:09:55;;;;;;;4.00;3.60;;;;;;;23.12;59.38;96240.50;10413740;28;20915;-25
2022/07/25 17:14:55;;;;;;;4.97;4.53;;;;;;;23.04;59.62;96243.28;10417049;28;20147;-25
2022/07/25 17:19:56;;;;;;;5.22;4.35;;;;;;;23.00;59.71;96241.66;10430077;28;20291;-25
2022/07/25 17:24:56;;;;;;;4.63;4.22;;;;;;;22.98;59.80;96253.63;10419642;28;20577;-25
2022/07/25 17:29:56;;;;;;;5.03;4.47;;;;;;;22.96;59.93;96245.19;10418325;28;20489;-23
2022/07/25 17:34:57;;;;;;;4.97;4.57;;;;;;;22.97;59.86;96240.94;10413423;28;20436;-27
2022/07/25 17:39:58;;;;;;;5.82;4.85;;;;;;;23.08;59.29;96259.38;10422423;28;20043;-24
2022/07/25 17:44:58;;;;;;;4.35;4.00;;;;;;;23.27;58.72;96256.34;10415887;28;20039;-26
2022/07/25 17:49:59;;;;;;;3.90;3.50;;;;;;;23.22;58.74;96258.16;10421298;28;20037;-25
2022/07/25 17:54:59;;;;;;;4.10;3.70;;;;;;;23.10;59.36;96265.25;10423506;28;20521;-24
2022/07/25 18:00:00;;;;;;;4.67;4.27;;;;;;;23.00;59.78;96266.38;10417922;28;20025;-26
2022/07/25 18:05:00;;;;;;;4.53;4.20;;;;;;;23.01;59.82;96276.56;10422813;28;20033;-26
2022/07/25 18:10:01;;;;;;;4.28;3.88;;;;;;;22.99;59.87;96280.84;10423609;28;20067;-23
2022/07/25 18:15:02;;;;;;;5.28;4.15;;;;;;;22.96;59.92;96275.81;10423242;28;20032;-24
2022/07/25 18:20:03;;;;;;;11.77;5.28;;;;;;;22.88;60.53;96272.63;10417273;28;20036;-25
2022/07/25 18:25:04;;;;;;;4.43;3.65;;;;;;;23.14;59.82;96283.06;10419187;28;20032;-25
2022/07/25 18:30:06;;;;;;;4.35;3.92;;;;;;;23.33;59.08;96293.66;10413797;28;20955;-24
2022/07/25 18:35:09;;;;;;;4.35;3.80;;;;;;;23.18;59.37;96294.88;10418661;28;20104;-24
2022/07/25 18:40:10;;;;;;;4.90;3.45;;;;;;;23.11;59.70;96300.13;10419163;28;20186;-25
2022/07/25 18:45:11;;;;;;;6.28;4.15;;;;;;;23.04;60.00;96304.56;10418075;28;20029;-25
2022/07/25 18:50:12;;;;;;;7.00;4.53;;;;;;;22.99;60.11;96311.47;10406848;28;20035;-23
2022/07/25 18:55:12;;;;;;;5.53;4.37;;;;;;;22.90;60.06;96301.50;10411501;28;20044;-25
2022/07/25 19:00:13;;;;;;;4.78;3.50;;;;;;;22.97;60.13;96318.34;10410200;28;20041;-25
2022/07/25 19:05:14;;;;;;;3.90;3.50;;;;;;;22.98;59.91;96324.31;10398040;28;20502;-25
2022/07/25 19:10:14;;;;;;;3.43;3.13;;;;;;;23.15;59.67;96329.88;10390182;28;20025;-25
2022/07/25 19:15:15;;;;;;;4.32;2.92;;;;;;;23.32;59.13;96351.56;10400379;28;20124;-23
2022/07/25 19:20:15;;;;;;;5.47;3.73;;;;;;;23.16;59.49;96365.56;10411415;28;20045;-24
2022/07/25 19:25:15;;;;;;;5.50;3.50;;;;;;;23.07;59.81;96386.19;10404261;28;20352;-24
2022/07/25 19:30:19;;;;;;;4.63;3.83;;;;;;;23.04;59.81;96396.50;10403771;28;20099;-26
2022/07/25 19:35:19;;;;;;;4.05;3.72;;;;;;;23.03;59.90;96405.03;10397755;28;20792;-24
2022/07/25 19:40:20;;;;;;;7.00;3.90;;;;;;;23.04;60.00;96416.06;10397904;28;20041;-23
2022/07/25 19:45:20;;;;;;;6.07;4.80;;;;;;;23.00;60.07;96420.41;10406868;28;20650;-24
2022/07/25 19:50:21;;;;;;;5.32;4.72;;;;;;;23.07;60.37;96424.50;10409488;28;20563;-23
2022/07/25 19:55:21;;;;;;;3.75;3.45;;;;;;;23.30;59.48;96450.41;10413247;28;20033;-25
2022/07/25 20:00:22;;;;;;;3.33;3.10;;;;;;;23.20;59.24;96441.28;10413666;28;20392;-25
2022/07/25 20:05:23;;;;;;;5.82;3.72;;;;;;;23.14;59.64;96468.63;10409862;28;20034;-25
2022/07/25 20:10:23;;;;;;;4.50;3.45;;;;;;;23.07;59.99;96474.75;10423854;28;20098;-25
2022/07/25 20:15:23;;;;;;;4.18;3.78;;;;;;;23.03;60.01;96496.97;10416781;28;20560;-26
2022/07/25 20:20:25;;;;;;;3.85;3.47;;;;;;;22.98;60.02;96497.94;10415308;28;20175;-25
2022/07/25 20:25:25;;;;;;;3.28;2.97;;;;;;;22.99;60.26;96520.84;10416266;28;20033;-22
2022/07/25 20:30:26;;;;;;;3.33;2.95;;;;;;;22.97;60.05;96527.72;10413742;28;20018;-23
2022/07/25 20:35:26;;;;;;;3.25;3.05;;;;;;;23.13;59.76;96539.31;10416726;28;20043;-24
2022/07/25 20:40:27;;;;;;;3.70;3.20;;;;;;;23.26;59.16;96535.66;10413750;28;20096;-20
2022/07/25 20:45:28;;;;;;;4.22;3.83;;;;;;;23.22;59.43;96554.47;10415152;28;20172;-23
2022/07/25 20:50:28;;;;;;;4.27;3.13;;;;;;;23.10;59.77;96558.94;10424441;28;20037;-23
2022/07/25 20:55:30;;;;;;;4.17;3.00;;;;;;;23.04;59.89;96559.06;10423617;28;20029;-24
2022/07/25 21:00:31;;;;;;;4.13;2.72;;;;;;;23.01;59.93;96554.03;10425439;28;20338;-24
2022/07/25 21:05:32;;;;;;;3.03;2.65;;;;;;;22.99;60.11;96545.56;10422568;28;20500;-22
2022/07/25 21:10:32;;;;;;;4.47;3.03;;;;;;;22.96;59.89;96546.47;10422994;28;20068;-24
2022/07/25 21:15:33;;;;;;;3.70;3.10;;;;;;;22.97;60.04;96552.44;10422672;28;20590;-22
2022/07/25 21:20:33;;;;;;;3.17;2.85;;;;;;;23.12;59.50;96542.72;10421737;28;20084;-22
2022/07/25 21:25:34;;;;;;;3.27;2.97;;;;;;;23.33;58.89;96559.34;10422771;28;20041;-22
2022/07/25 21:30:36;;;;;;;3.03;2.60;;;;;;;23.18;59.31;96557.13;10417612;28;20514;-21
2022/07/25 21:35:36;;;;;;;3.35;2.88;;;;;;;23.08;59.68;96561.53;10423369;28;20276;-21
2022/07/25 21:40:38;;;;;;;3.00;2.67;;;;;;;22.97;60.02;96543.03;10419450;28;20029;-23
2022/07/25 21:45:39;;;;;;;4.07;2.97;;;;;;;23.00;59.90;96567.69;10423106;28;20853;-24
2022/07/25 21:50:42;;;;;;;3.00;2.70;;;;;;;22.97;59.99;96558.34;10424627;28;20029;-24
2022/07/25 21:55:43;;;;;;;3.00;2.80;;;;;;;22.97;60.12;96547.31;10415831;28;20304;-22
2022/07/25 22:00:43;;;;;;;3.70;2.60;;;;;;;22.99;59.96;96540.47;10423739;28;20037;-23
2022/07/25 22:05:43;;;;;;;3.00;2.70;;;;;;;23.24;59.02;96545.03;10419405;28;20049;-23
2022/07/25 22:10:44;;;;;;;2.60;2.40;;;;;;;23.30;58.77;96552.59;10418191;28;20389;-23
2022/07/25 22:15:44;;;;;;;2.87;2.67;;;;;;;23.12;59.22;96542.72;10420423;28;20399;-22
2022/07/25 22:20:44;;;;;;;2.97;2.67;;;;;;;23.06;59.75;96553.06;10421734;28;20954;-24
2022/07/25 22:25:45;;;;;;;2.77;2.20;;;;;;;23.01;59.73;96548.94;10421202;28;20033;-23
2022/07/25 22:30:48;;;;;;;2.60;2.40;;;;;;;22.98;59.95;96549.81;10412563;28;20300;-23
2022/07/25 22:35:49;;;;;;;2.83;2.35;;;;;;;22.97;59.64;96547.31;10419935;28;20316;-24
2022/07/25 22:40:49;;;;;;;2.47;2.20;;;;;;;22.96;59.97;96543.91;10418858;28;20053;-23
2022/07/25 22:45:51;;;;;;;3.50;2.33;;;;;;;23.01;59.29;96536.16;10419492;28;20175;-22
2022/07/25 22:50:51;;;;;;;3.13;2.75;;;;;;;23.28;58.55;96551.78;10420744;28;20040;-20
2022/07/25 22:55:51;;;;;;;2.47;2.27;;;;;;;23.24;58.75;96565.47;10412780;28;20029;-23
2022/07/25 23:00:52;;;;;;;3.33;2.13;;;;;;;23.03;59.32;96553.13;10422828;28;20602;-24
2022/07/25 23:05:52;;;;;;;4.20;2.35;;;;;;;23.05;59.54;96597.34;10421540;28;20496;-22
2022/07/25 23:10:54;;;;;;;2.65;2.45;;;;;;;22.99;59.66;96607.69;10422460;28;20041;-25
2022/07/25 23:15:55;;;;;;;2.83;2.50;;;;;;;22.99;59.55;96612.78;10413658;28;20072;-23